Deerfield, WI

3:57 PM CST on December 19, 2014 (GMT -0600)
Dane County Regional-Truax | Change Station
CLOSE
Current Station
Airport
Location: Madison,
Elevation: 866 ft
Nearby Weather Stations

Elev 866 ft 43.14 °N, 89.35 °W | Updated 1 hour ago

Overcast
Overcast
26 °F
Feels Like 26 °F
N
0
Wind Variable Wind from North

Today
High -- | Low -- °F
--% Chance of Precip.
Yesterday
High -- | Low -- °F
Precip. -- in
7:23 AM 4:23 PM
Waning Crescent, 6% visible
Pressure 30.30 in
Visibility 7.0 miles
Clouds Overcast 1400 ft
Dew Point 20 °F
Humidity 78%
Rainfall 0.00 in
Snow Depth Not available.
UV 0 out of 12
Pollen .10 out of 12
Air Quality Not available.
Flu Activity Not available.
METAR KMSN 192053Z 00000KT 7SM OVC014 M03/M07 A3026 RMK AO2 SNE14 SLP260 P0000 60000 T10331067 55012

More Conditions Fewer Conditions

Pressure 30.30 in
Visibility 7.0 miles
Clouds Overcast 1400 ft
Dew Point 20 °F
Humidity 78%
Rainfall 0.00 in
Snow Depth Not available.
UV 0 out of 12
Pollen .10 out of 12
Air Quality Not available.
Flu Activity Not available.
METAR KMSN 192053Z 00000KT 7SM OVC014 M03/M07 A3026 RMK AO2 SNE14 SLP260 P0000 60000 T10331067 55012

More Conditions Fewer Conditions

10-Day Weather Forecast

Almanac

Astronomy

Dec. 19, 2014 Rise Set
Actual Time
Civil Twilight
Nautical Twilight
Astronomical Twilight
Moon
Length of Visible Light
Length of Day
Tomorrow will be .
, % of the Moon is Illuminated

Today's Extremes

State Highs State Lows

Community

WunderPhotos

Upload Photos

1,779,060 photos uploaded!

WunderBlogs® & News

Nearby

Air Quality

  Air Quality AQ Index Pollutant
Not available.

Snow Depth

Station Depth Elevation

Earthquake Activity

City Distance Mag. Time & Date
Minimum magnitude displayed is 2.5.

Coastal Water Temperatures

Place Temperature

Nearby Weather Stations